Aeroporto :
LOGIN :

Iscrizione | Disclaimer

   EN    FR    IT 

 










Sommario :    VFR   VFR Marginale   IFR   IFR Intensivo   IFR Molto Intensivo
Visibilità : 
Base nubi : 
>= 8 km
>= 3000ft
5 / 8 km
1000 / 3000 ft
1500m / 5 km
500 / 1000 ft
800 / 1500m
200 / 500 ft
< 800m
< 200 ft
Simboli :   Temporali  Nebbia  Neve Forte  Precipitazioni Forti  Vento > 20 kt
SIGMETs :   Varie  Temporali  Ghiacco  Turbolenza  Onda orograficha  Ceneri Vulcaniche







- Altitudine del aeroporto : 511 ft
- Codice IATA : LHA


EDTL - Lahr Schwarzwald

ULTIMO METAR :
  • 231450Z 20006KT 9999 BKN042 09/06 Q1027

METARs OBSOLETI :
  • 231420Z 21005KT 9999 BKN041 09/06 Q1027
  • 231320Z 21005KT 9999 FEW028 BKN039 08/06 Q1027
  • 231250Z 21007KT 9999 SCT035 BKN040 08/06 Q1027
  • 231220Z 22007KT 9999 SCT036 BKN041 08/06 Q1027

TAF TAF EDTL
Valido dal 23 a 15 ore il 24 a 00 ore UTC


231400Z 2315/2324 20006KT 9999 BKN040
Nessun NOTAM noto per questo aeroporto.



MetMap, La meteo Aeronautica in un colpo d'occhio ! - Copyright ORBIFLY Dicembre 2007 - Disclaimer

ORBIFLY MET'MAP TEAM :

Programmazione e sviluppo : Alexandra Zaïnal
Concezione e sviluppo : Baudouin d'Aumeries
Co-Programmazione e sviluppo : Marc-Olivier Méhu
Supporto tecnico e logistico : Manuel Goepfert
Aiuto per la traduzione : Arnaldo La Scala

Contatto : metmap@orbifly.com




FONTI E CREDITI :

   NOAA